createdAt,value
2023-02-22T00:00:44.642Z,13.57
2023-02-22T00:03:26.998Z,13.68
2023-02-22T00:05:58.551Z,13.57
2023-02-22T00:08:30.698Z,13.58
2023-02-22T00:10:58.391Z,13.56
2023-02-22T00:13:25.305Z,13.56
2023-02-22T00:15:51.777Z,13.55
2023-02-22T00:18:19.331Z,13.57
2023-02-22T00:20:46.025Z,13.55
2023-02-22T00:23:19.092Z,13.89
2023-02-22T00:25:47.120Z,13.61
2023-02-22T00:28:15.316Z,13.58
2023-02-22T00:30:44.783Z,13.57
2023-02-22T00:33:13.277Z,13.57
2023-02-22T00:35:40.013Z,13.55
2023-02-22T00:38:07.034Z,13.56
2023-02-22T00:40:35.416Z,13.56
2023-02-22T00:43:04.983Z,13.59
2023-02-22T00:45:33.572Z,13.55
2023-02-22T00:48:00.936Z,13.53
2023-02-22T00:50:29.346Z,13.54
2023-02-22T00:52:57.733Z,13.51
2023-02-22T00:55:29.957Z,13.53
2023-02-22T00:57:57.414Z,13.51
2023-02-22T01:00:28.358Z,13.51
2023-02-22T01:02:56.946Z,13.51
2023-02-22T01:05:28.951Z,13.55
2023-02-22T01:07:57.520Z,13.52
2023-02-22T01:10:27.029Z,13.52
2023-02-22T01:12:55.231Z,13.49
2023-02-22T01:15:23.961Z,13.51
2023-02-22T01:17:53.648Z,13.51
2023-02-22T01:20:22.937Z,13.50
2023-02-22T01:22:51.688Z,13.51
2023-02-22T01:25:21.227Z,13.51
2023-02-22T01:27:48.277Z,13.48
2023-02-22T01:30:15.225Z,13.47
2023-02-22T01:32:42.746Z,13.48
2023-02-22T01:35:14.110Z,13.49
2023-02-22T01:37:41.364Z,13.46
2023-02-22T01:40:11.156Z,13.47
2023-02-22T01:42:37.683Z,13.46
2023-02-22T01:45:35.043Z,13.57
2023-02-22T01:48:39.204Z,13.56
2023-02-22T01:51:11.512Z,13.44
2023-02-22T01:54:02.637Z,13.48
2023-02-22T01:56:32.765Z,13.37
2023-02-22T01:59:08.785Z,13.37
2023-02-22T02:01:37.303Z,13.30
2023-02-22T02:04:09.976Z,13.31
2023-02-22T02:06:37.870Z,13.25
2023-02-22T02:09:17.392Z,13.34
2023-02-22T02:11:44.341Z,13.21
2023-02-22T02:14:11.896Z,13.21
2023-02-22T02:16:44.924Z,13.24
2023-02-22T02:19:49.579Z,13.30
2023-02-22T02:22:42.651Z,13.26
2023-02-22T02:25:18.274Z,13.18
2023-02-22T02:28:05.310Z,13.26
2023-02-22T02:30:48.867Z,13.23
2023-02-22T02:33:26.080Z,13.17
2023-02-22T02:36:01.558Z,13.42
2023-02-22T02:38:40.214Z,13.18
2023-02-22T02:41:17.348Z,13.15
2023-02-22T02:43:55.802Z,13.37
2023-02-22T02:46:29.857Z,13.13
2023-02-22T02:49:01.166Z,13.06
2023-02-22T02:51:36.695Z,13.05
2023-02-22T02:54:04.341Z,12.96
2023-02-22T02:56:31.212Z,12.95
2023-02-22T02:58:57.682Z,12.93
2023-02-22T03:01:45.232Z,13.02
2023-02-22T03:04:20.944Z,12.98
2023-02-22T03:07:28.060Z,13.03
2023-02-22T03:10:21.459Z,13.05
2023-02-22T03:13:03.115Z,13.00
2023-02-22T03:15:46.810Z,12.97
2023-02-22T03:18:22.921Z,12.91
2023-02-22T03:21:16.767Z,12.99
2023-02-22T03:24:07.239Z,12.97
2023-02-22T03:26:43.580Z,12.95
2023-02-22T03:29:13.280Z,12.92
2023-02-22T03:31:46.349Z,12.93
2023-02-22T03:34:22.985Z,12.97
2023-02-22T03:36:56.521Z,12.99
2023-02-22T03:39:31.013Z,12.95
2023-02-22T03:42:07.689Z,13.03
2023-02-22T03:44:40.302Z,13.01
2023-02-22T03:47:12.203Z,13.03
2023-02-22T03:49:57.577Z,13.03
2023-02-22T03:52:24.558Z,13.00
2023-02-22T03:54:53.814Z,13.02
2023-02-22T03:57:33.899Z,13.05
2023-02-22T04:00:00.766Z,13.01
2023-02-22T04:02:27.320Z,13.01
2023-02-22T04:04:53.965Z,13.02
2023-02-22T04:07:20.409Z,13.33
2023-02-22T04:09:46.895Z,13.06
2023-02-22T04:12:13.408Z,13.06
2023-02-22T04:14:39.861Z,13.04
2023-02-22T04:17:06.378Z,13.03
2023-02-22T04:19:32.870Z,13.02
2023-02-22T04:21:59.344Z,13.03
2023-02-22T04:24:25.882Z,13.02
2023-02-22T04:26:52.975Z,13.02
2023-02-22T04:29:19.476Z,12.99
2023-02-22T04:31:46.052Z,12.99
2023-02-22T04:34:12.758Z,13.00
2023-02-22T04:36:39.538Z,13.28
2023-02-22T04:39:06.035Z,13.00
2023-02-22T04:41:33.385Z,12.97
2023-02-22T04:44:00.001Z,12.95
2023-02-22T04:46:26.425Z,13.23
2023-02-22T04:48:54.403Z,12.95
2023-02-22T04:51:21.035Z,12.93
2023-02-22T04:53:47.542Z,12.97
2023-02-22T04:56:14.134Z,13.08
2023-02-22T04:58:40.553Z,13.44
2023-02-22T05:01:08.266Z,13.41
2023-02-22T05:03:38.082Z,13.63
2023-02-22T05:06:04.759Z,13.79
2023-02-22T05:08:31.179Z,14.22
2023-02-22T05:10:57.699Z,14.23
2023-02-22T05:13:24.177Z,14.42
2023-02-22T05:15:50.722Z,14.60
2023-02-22T05:18:17.332Z,15.00
2023-02-22T05:20:43.890Z,14.97
2023-02-22T05:23:10.317Z,15.35
2023-02-22T05:25:36.964Z,15.28
2023-02-22T05:28:05.423Z,15.63
2023-02-22T05:30:35.222Z,15.49
2023-02-22T05:33:02.759Z,15.46
2023-02-22T05:35:29.442Z,15.43
2023-02-22T05:37:56.022Z,15.72
2023-02-22T05:40:26.374Z,15.36
2023-02-22T05:42:54.094Z,15.20
2023-02-22T05:45:22.937Z,15.08
2023-02-22T05:47:49.446Z,14.94
2023-02-22T05:50:16.312Z,14.83
